الصفحة الرئيسية
METAR-TAF:

METAR-TAF

مطار :

مطار ليوناردو دا فينشي

روما-فيوميتشينو, إيطاليا

دائرة عرض: 41-48N, خط طول: 012-14E, ارتفاع: 2 متر

مراقبة الطقس الحالي

تاريخ ووقت الإصدار 33 دقيقة قبل الساعة 23:50UTC
ريح 3 عقدة من الشمال الشرقي
درجة الحرارة 22°درجة مئوية
الرطوبة 94%
ضغط 1015 hPa
الرؤية 10 كم أو أكثر
الغيوم لا تقل 1500 م ولا وجود لمزنة ركامية السحاب الأسود

METAR: LIRF 172350Z 04003KT CAVOK 22/21 Q1015 NOSIG

زمن: 02:23 (00:23 UTC)

توقعات

تاريخ ووقت الإصدار 1ساعة و 23 دقيقة قبل الساعة 23:00UTC
التوقعات صالحة من18 الساعة 00 UTC إلى 19 الساعة 06 UTC
ريح 5 عقدةمن اتجاهات متغيرة
الرؤية 10 كم أو أكثر
غيوم متفرقة على ارتفاع 3000 قدم
أصبح
من 18 الساعة 08 UTC إلى 18 الساعة 10 UTC
ريح 10 عقدة من الغرب
مؤقت
من 18 الساعة 14 UTC إلى 18 الساعة 17 UTC
الرؤية: 4000 متر
عاصفة رعدية, مطر
أصبح
من 18 الساعة 17 UTC إلى 18 الساعة 19 UTC
ريح 5 عقدةمن اتجاهات متغيرة

TAF: LIRF 172300Z 1800/1906 VRB05KT 9999 SCT030 BECMG 1808/1810 28010KT TEMPO 1814/1817 4000 TSRA BECMG 1817/1819 VRB05KT

أرصاد الطقس والتوقعات من أكثر من 4000 مطار (تقارير الطقس للمطار METAR والتنبؤ بالطقس بالمطارTAF).

المحطات المتاحة هي النقط الصفراء والحمراء على الخريطة.

حرك المؤشر فوق النقطة لمعرفة اسم المحطة.

ثم انقر لمعرفة أرصاد وتوقعات الطقس.

لتغيير الخارطة: اضغط على الأزرار الخضراء مع رمز الصليب الأسود للتكبير. على الزر الأخضر مع شرطة للتصغير، أو على الأسهم الخضراء للخرائط المجاورة.


METAR-TAF: